This is the latest recevied weather packets stored in our database for station/object KD8OZS. If no packets are shown the sender has not sent any weather packets the latest 1 day(s).
| Time | Temp. | Humidity | Pressure | Rain* | Wind** | Luminosity | Snow |
|---|---|---|---|---|---|---|---|
| 1777976688 | 16.11° C | 76% | 998.8 hPa | 0 mm | 0 m/s | 0 W/m² | - |
| 1777976385 | 16.11° C | 75% | 998.8 hPa | 0 mm | 0.45 m/s, 244° | 0 W/m² | - |
| 1777976078 | 16.11° C | 75% | 998.6 hPa | 0 mm | 0.45 m/s, 240° | 0 W/m² | - |
| 1777975774 | 16.67° C | 76% | 998.7 hPa | 0 mm | 0.89 m/s, 241° | 0 W/m² | - |
| 1777975472 | 16.67° C | 74% | 998.6 hPa | 0 mm | 0.89 m/s, 242° | 0 W/m² | - |
| 1777975167 | 16.67° C | 74% | 998.5 hPa | 0 mm | 1.34 m/s, 229° | 0 W/m² | - |
| 1777974865 | 16.67° C | 74% | 998.5 hPa | 0 mm | 0 m/s | 0 W/m² | - |
| 1777974560 | 16.67° C | 73% | 998.5 hPa | 0 mm | 1.34 m/s, 250° | 0 W/m² | - |
| 1777974258 | 16.67° C | 74% | 998.5 hPa | 0 mm | 1.34 m/s, 232° | 0 W/m² | - |
| 1777973954 | 16.67° C | 73% | 998.4 hPa | 0 mm | 0.45 m/s, 241° | 0 W/m² | - |
| 1777973651 | 17.22° C | 72% | 998.3 hPa | 0 mm | 0.45 m/s, 244° | 0 W/m² | - |
| 1777973348 | 17.22° C | 72% | 998.2 hPa | 0 mm | 0.45 m/s, 264° | 0 W/m² | - |
| 1777973046 | 16.67° C | 72% | 998.3 hPa | 0 mm | 0.89 m/s, 233° | 0 W/m² | - |
| 1777972743 | 17.22° C | 72% | 998.2 hPa | 0 mm | 0.45 m/s, 239° | 0 W/m² | - |
| 1777972441 | 17.22° C | 71% | 998.3 hPa | 0 mm | 0.89 m/s, 228° | 0 W/m² | - |
| 1777972138 | 17.22° C | 72% | 998.1 hPa | 0 mm | 0.45 m/s, 243° | 0 W/m² | - |
| 1777971836 | 17.22° C | 72% | 998.2 hPa | 0 mm | 0.45 m/s, 254° | 0 W/m² | - |
| 1777971533 | 17.22° C | 71% | 997.9 hPa | 0 mm | 0.89 m/s, 229° | 0 W/m² | - |
| 1777971231 | 17.22° C | 70% | 998 hPa | 0 mm | 1.34 m/s, 226° | 0 W/m² | - |
| 1777970929 | 17.22° C | 71% | 998.1 hPa | 0 mm | 0.45 m/s, 240° | 0 W/m² | - |
| 1777970627 | 17.22° C | 70% | 998 hPa | 0 mm | 0.89 m/s, 247° | 0 W/m² | - |
| 1777970324 | 17.22° C | 71% | 997.8 hPa | 0 mm | 1.34 m/s, 241° | 0 W/m² | - |
| 1777970022 | 17.78° C | 71% | 997.9 hPa | 0 mm | 0.45 m/s, 246° | 0 W/m² | - |
| 1777969718 | 17.22° C | 72% | 997.5 hPa | 0 mm | 1.79 m/s, 217° | 0 W/m² | - |
| 1777969414 | 17.22° C | 72% | 997.7 hPa | 0 mm | 1.34 m/s, 245° | 0 W/m² | - |
* Rain latest hour (hover to see other rain measurements)
** Current wind speed in m/s (hover to see current wind gust speed)